sensor_id;sensor_type;location;lat;lon;timestamp;temperature;humidity
36710;DHT22;22694;51.040;3.684;2022-12-29T00:01:18;14.00;91.20
36710;DHT22;22694;51.040;3.684;2022-12-29T00:03:46;14.00;91.40
36710;DHT22;22694;51.040;3.684;2022-12-29T00:06:12;14.00;91.40
36710;DHT22;22694;51.040;3.684;2022-12-29T00:08:38;14.00;91.50
36710;DHT22;22694;51.040;3.684;2022-12-29T00:11:12;14.00;91.50
36710;DHT22;22694;51.040;3.684;2022-12-29T00:13:38;14.00;91.50
36710;DHT22;22694;51.040;3.684;2022-12-29T00:16:23;14.00;91.50
36710;DHT22;22694;51.040;3.684;2022-12-29T00:18:48;14.00;91.50
36710;DHT22;22694;51.040;3.684;2022-12-29T00:21:17;14.00;91.50
36710;DHT22;22694;51.040;3.684;2022-12-29T00:24:01;14.00;91.70
36710;DHT22;22694;51.040;3.684;2022-12-29T00:26:58;14.00;91.50
36710;DHT22;22694;51.040;3.684;2022-12-29T00:29:53;14.00;91.50
36710;DHT22;22694;51.040;3.684;2022-12-29T00:32:37;14.00;91.50
36710;DHT22;22694;51.040;3.684;2022-12-29T00:35:34;14.00;91.60
36710;DHT22;22694;51.040;3.684;2022-12-29T00:38:04;14.00;91.60
36710;DHT22;22694;51.040;3.684;2022-12-29T00:40:49;14.00;91.60
36710;DHT22;22694;51.040;3.684;2022-12-29T00:43:33;14.00;91.60
36710;DHT22;22694;51.040;3.684;2022-12-29T00:46:17;13.90;91.60
36710;DHT22;22694;51.040;3.684;2022-12-29T00:48:43;14.00;91.60
36710;DHT22;22694;51.040;3.684;2022-12-29T00:51:27;14.00;91.70
36710;DHT22;22694;51.040;3.684;2022-12-29T00:53:52;14.00;91.60
36710;DHT22;22694;51.040;3.684;2022-12-29T00:56:18;14.00;91.70
36710;DHT22;22694;51.040;3.684;2022-12-29T00:58:44;14.00;91.70
36710;DHT22;22694;51.040;3.684;2022-12-29T01:01:09;13.90;91.60
36710;DHT22;22694;51.040;3.684;2022-12-29T01:03:36;14.00;91.70
36710;DHT22;22694;51.040;3.684;2022-12-29T01:06:10;14.00;91.70
36710;DHT22;22694;51.040;3.684;2022-12-29T01:08:36;14.00;91.70
36710;DHT22;22694;51.040;3.684;2022-12-29T01:11:04;14.00;91.70
36710;DHT22;22694;51.040;3.684;2022-12-29T01:13:30;14.00;91.70
36710;DHT22;22694;51.040;3.684;2022-12-29T01:15:56;14.00;91.70
36710;DHT22;22694;51.040;3.684;2022-12-29T01:18:22;14.00;91.80
36710;DHT22;22694;51.040;3.684;2022-12-29T01:20:48;13.90;91.80
36710;DHT22;22694;51.040;3.684;2022-12-29T01:23:14;14.00;91.80
36710;DHT22;22694;51.040;3.684;2022-12-29T01:25:39;14.00;91.80
36710;DHT22;22694;51.040;3.684;2022-12-29T01:28:05;14.00;91.80
36710;DHT22;22694;51.040;3.684;2022-12-29T01:30:36;14.00;91.80
36710;DHT22;22694;51.040;3.684;2022-12-29T01:33:01;14.00;91.80
36710;DHT22;22694;51.040;3.684;2022-12-29T01:35:27;14.00;91.80
36710;DHT22;22694;51.040;3.684;2022-12-29T01:37:53;14.00;91.80
36710;DHT22;22694;51.040;3.684;2022-12-29T01:40:19;14.00;91.80
36710;DHT22;22694;51.040;3.684;2022-12-29T01:42:45;14.00;91.80
36710;DHT22;22694;51.040;3.684;2022-12-29T01:45:16;14.00;91.80
36710;DHT22;22694;51.040;3.684;2022-12-29T01:47:49;14.00;91.80
36710;DHT22;22694;51.040;3.684;2022-12-29T01:50:21;14.00;91.80
36710;DHT22;22694;51.040;3.684;2022-12-29T01:52:54;14.00;91.80
36710;DHT22;22694;51.040;3.684;2022-12-29T01:55:22;14.00;91.80
36710;DHT22;22694;51.040;3.684;2022-12-29T01:57:50;14.00;91.80
36710;DHT22;22694;51.040;3.684;2022-12-29T02:00:16;14.00;91.80
36710;DHT22;22694;51.040;3.684;2022-12-29T02:02:46;14.00;91.90
36710;DHT22;22694;51.040;3.684;2022-12-29T02:05:27;14.00;91.90
36710;DHT22;22694;51.040;3.684;2022-12-29T02:07:54;14.00;91.90
36710;DHT22;22694;51.040;3.684;2022-12-29T02:10:22;14.00;91.90
36710;DHT22;22694;51.040;3.684;2022-12-29T02:12:48;14.00;91.90
36710;DHT22;22694;51.040;3.684;2022-12-29T02:15:15;14.00;91.90
36710;DHT22;22694;51.040;3.684;2022-12-29T02:20:50;14.00;91.90
36710;DHT22;22694;51.040;3.684;2022-12-29T02:34:26;14.00;91.90
36710;DHT22;22694;51.040;3.684;2022-12-29T02:37:00;14.00;91.90
36710;DHT22;22694;51.040;3.684;2022-12-29T02:42:09;14.00;91.80
36710;DHT22;22694;51.040;3.684;2022-12-29T02:52:40;14.00;91.90
36710;DHT22;22694;51.040;3.684;2022-12-29T02:55:11;14.00;91.80
36710;DHT22;22694;51.040;3.684;2022-12-29T02:57:36;14.00;91.90
36710;DHT22;22694;51.040;3.684;2022-12-29T03:00:08;14.00;91.90
36710;DHT22;22694;51.040;3.684;2022-12-29T03:02:39;14.00;91.80
36710;DHT22;22694;51.040;3.684;2022-12-29T03:05:17;14.00;91.80
36710;DHT22;22694;51.040;3.684;2022-12-29T03:11:05;14.00;91.80
36710;DHT22;22694;51.040;3.684;2022-12-29T03:13:49;13.90;91.80
36710;DHT22;22694;51.040;3.684;2022-12-29T03:21:55;14.00;91.80
36710;DHT22;22694;51.040;3.684;2022-12-29T03:24:43;13.90;91.80
36710;DHT22;22694;51.040;3.684;2022-12-29T03:27:15;13.90;91.80
36710;DHT22;22694;51.040;3.684;2022-12-29T03:29:47;14.00;91.90
36710;DHT22;22694;51.040;3.684;2022-12-29T03:32:19;14.00;91.80
36710;DHT22;22694;51.040;3.684;2022-12-29T03:34:46;13.90;91.80
36710;DHT22;22694;51.040;3.684;2022-12-29T03:37:18;13.90;91.90
36710;DHT22;22694;51.040;3.684;2022-12-29T03:39:44;13.90;91.80
36710;DHT22;22694;51.040;3.684;2022-12-29T03:42:17;13.90;91.80
36710;DHT22;22694;51.040;3.684;2022-12-29T03:44:44;14.00;91.80
36710;DHT22;22694;51.040;3.684;2022-12-29T03:47:11;13.90;91.80
36710;DHT22;22694;51.040;3.684;2022-12-29T03:49:37;13.90;91.70
36710;DHT22;22694;51.040;3.684;2022-12-29T03:52:04;13.90;91.70
36710;DHT22;22694;51.040;3.684;2022-12-29T03:54:30;13.90;91.70
36710;DHT22;22694;51.040;3.684;2022-12-29T03:56:56;13.90;91.70
36710;DHT22;22694;51.040;3.684;2022-12-29T03:59:22;13.90;91.70
36710;DHT22;22694;51.040;3.684;2022-12-29T04:01:47;13.90;91.80
36710;DHT22;22694;51.040;3.684;2022-12-29T04:04:13;13.90;91.80
36710;DHT22;22694;51.040;3.684;2022-12-29T04:06:39;13.90;91.80
36710;DHT22;22694;51.040;3.684;2022-12-29T04:09:05;13.90;91.70
36710;DHT22;22694;51.040;3.684;2022-12-29T04:11:31;13.90;91.70
36710;DHT22;22694;51.040;3.684;2022-12-29T04:13:57;13.90;91.80
36710;DHT22;22694;51.040;3.684;2022-12-29T04:16:22;13.90;91.80
36710;DHT22;22694;51.040;3.684;2022-12-29T04:18:48;13.90;91.70
36710;DHT22;22694;51.040;3.684;2022-12-29T04:21:13;13.90;91.70
36710;DHT22;22694;51.040;3.684;2022-12-29T04:23:39;13.90;91.70
36710;DHT22;22694;51.040;3.684;2022-12-29T04:26:07;13.90;91.80
36710;DHT22;22694;51.040;3.684;2022-12-29T04:28:33;13.90;91.70
36710;DHT22;22694;51.040;3.684;2022-12-29T04:30:59;13.90;91.70
36710;DHT22;22694;51.040;3.684;2022-12-29T04:33:25;13.80;91.70
36710;DHT22;22694;51.040;3.684;2022-12-29T04:35:51;13.90;91.70
36710;DHT22;22694;51.040;3.684;2022-12-29T04:38:20;13.90;91.70
36710;DHT22;22694;51.040;3.684;2022-12-29T04:40:46;13.90;91.70
36710;DHT22;22694;51.040;3.684;2022-12-29T04:43:13;13.90;91.60
36710;DHT22;22694;51.040;3.684;2022-12-29T04:45:42;13.80;91.60
36710;DHT22;22694;51.040;3.684;2022-12-29T04:48:08;13.80;91.60
36710;DHT22;22694;51.040;3.684;2022-12-29T04:50:34;13.80;91.60
36710;DHT22;22694;51.040;3.684;2022-12-29T04:53:00;13.80;91.60
36710;DHT22;22694;51.040;3.684;2022-12-29T04:55:25;13.80;91.90
36710;DHT22;22694;51.040;3.684;2022-12-29T04:57:51;13.80;91.70
36710;DHT22;22694;51.040;3.684;2022-12-29T05:00:17;13.80;91.70
36710;DHT22;22694;51.040;3.684;2022-12-29T05:02:42;13.80;91.70
36710;DHT22;22694;51.040;3.684;2022-12-29T05:05:08;13.90;91.70
36710;DHT22;22694;51.040;3.684;2022-12-29T05:07:34;13.80;91.60
36710;DHT22;22694;51.040;3.684;2022-12-29T05:10:00;13.80;91.70
36710;DHT22;22694;51.040;3.684;2022-12-29T05:12:28;13.80;91.80
36710;DHT22;22694;51.040;3.684;2022-12-29T05:14:54;13.80;91.90
36710;DHT22;22694;51.040;3.684;2022-12-29T05:17:20;13.80;91.80
36710;DHT22;22694;51.040;3.684;2022-12-29T05:19:45;13.80;91.70
36710;DHT22;22694;51.040;3.684;2022-12-29T05:22:11;13.80;91.70
36710;DHT22;22694;51.040;3.684;2022-12-29T05:24:36;13.80;91.70
36710;DHT22;22694;51.040;3.684;2022-12-29T05:27:02;13.80;91.70
36710;DHT22;22694;51.040;3.684;2022-12-29T05:29:28;13.80;91.70
36710;DHT22;22694;51.040;3.684;2022-12-29T05:31:53;13.80;91.70
36710;DHT22;22694;51.040;3.684;2022-12-29T05:34:19;13.80;91.70
36710;DHT22;22694;51.040;3.684;2022-12-29T05:36:44;13.80;91.70
36710;DHT22;22694;51.040;3.684;2022-12-29T05:39:10;13.80;91.70
36710;DHT22;22694;51.040;3.684;2022-12-29T05:41:36;13.80;91.70
36710;DHT22;22694;51.040;3.684;2022-12-29T05:44:01;13.80;91.70
36710;DHT22;22694;51.040;3.684;2022-12-29T05:46:27;13.80;91.60
36710;DHT22;22694;51.040;3.684;2022-12-29T05:48:53;13.80;91.90
36710;DHT22;22694;51.040;3.684;2022-12-29T05:51:18;13.80;91.60
36710;DHT22;22694;51.040;3.684;2022-12-29T05:53:44;13.80;91.60
36710;DHT22;22694;51.040;3.684;2022-12-29T05:56:10;13.80;91.60
36710;DHT22;22694;51.040;3.684;2022-12-29T05:58:35;13.80;91.70
36710;DHT22;22694;51.040;3.684;2022-12-29T06:01:01;13.80;91.60
36710;DHT22;22694;51.040;3.684;2022-12-29T06:03:26;13.80;91.70
36710;DHT22;22694;51.040;3.684;2022-12-29T06:05:52;13.70;91.70
36710;DHT22;22694;51.040;3.684;2022-12-29T06:08:18;13.80;91.70
36710;DHT22;22694;51.040;3.684;2022-12-29T06:10:43;13.70;91.70
36710;DHT22;22694;51.040;3.684;2022-12-29T06:13:09;13.70;91.70
36710;DHT22;22694;51.040;3.684;2022-12-29T06:15:35;13.70;91.70
36710;DHT22;22694;51.040;3.684;2022-12-29T06:18:01;13.70;91.70
36710;DHT22;22694;51.040;3.684;2022-12-29T06:20:27;13.70;91.70
36710;DHT22;22694;51.040;3.684;2022-12-29T06:22:52;13.70;91.70
36710;DHT22;22694;51.040;3.684;2022-12-29T06:25:18;13.70;91.70
36710;DHT22;22694;51.040;3.684;2022-12-29T06:27:44;13.70;91.60
36710;DHT22;22694;51.040;3.684;2022-12-29T06:30:10;13.70;91.70
36710;DHT22;22694;51.040;3.684;2022-12-29T06:32:36;13.70;91.70
36710;DHT22;22694;51.040;3.684;2022-12-29T06:35:03;13.70;91.70
36710;DHT22;22694;51.040;3.684;2022-12-29T06:37:29;13.70;91.70
36710;DHT22;22694;51.040;3.684;2022-12-29T06:39:55;13.70;91.60
36710;DHT22;22694;51.040;3.684;2022-12-29T06:42:20;13.70;91.60
36710;DHT22;22694;51.040;3.684;2022-12-29T06:44:46;13.70;91.60
36710;DHT22;22694;51.040;3.684;2022-12-29T06:47:12;13.70;91.80
36710;DHT22;22694;51.040;3.684;2022-12-29T06:49:37;13.70;91.70
36710;DHT22;22694;51.040;3.684;2022-12-29T06:52:03;13.70;91.60
36710;DHT22;22694;51.040;3.684;2022-12-29T06:54:32;13.70;91.60
36710;DHT22;22694;51.040;3.684;2022-12-29T06:56:58;13.70;91.60
36710;DHT22;22694;51.040;3.684;2022-12-29T06:59:24;13.70;91.60
36710;DHT22;22694;51.040;3.684;2022-12-29T07:01:51;13.70;91.60
36710;DHT22;22694;51.040;3.684;2022-12-29T07:04:16;13.70;91.60
36710;DHT22;22694;51.040;3.684;2022-12-29T07:06:42;13.70;91.60
36710;DHT22;22694;51.040;3.684;2022-12-29T07:09:08;13.70;91.60
36710;DHT22;22694;51.040;3.684;2022-12-29T07:11:35;13.70;91.90
36710;DHT22;22694;51.040;3.684;2022-12-29T07:14:05;13.70;91.60
36710;DHT22;22694;51.040;3.684;2022-12-29T07:16:32;13.70;91.60
36710;DHT22;22694;51.040;3.684;2022-12-29T07:18:57;13.70;91.60
36710;DHT22;22694;51.040;3.684;2022-12-29T07:21:24;13.70;91.60
36710;DHT22;22694;51.040;3.684;2022-12-29T07:23:50;13.70;91.50
36710;DHT22;22694;51.040;3.684;2022-12-29T07:26:16;13.70;91.60
36710;DHT22;22694;51.040;3.684;2022-12-29T07:28:46;13.70;91.60
36710;DHT22;22694;51.040;3.684;2022-12-29T07:31:20;13.70;91.70
36710;DHT22;22694;51.040;3.684;2022-12-29T07:33:48;13.70;91.60
36710;DHT22;22694;51.040;3.684;2022-12-29T07:36:15;13.70;91.70
36710;DHT22;22694;51.040;3.684;2022-12-29T07:38:42;13.70;91.70
36710;DHT22;22694;51.040;3.684;2022-12-29T07:41:08;13.70;91.70
36710;DHT22;22694;51.040;3.684;2022-12-29T07:43:34;13.70;91.60
36710;DHT22;22694;51.040;3.684;2022-12-29T07:45:59;13.70;91.60
36710;DHT22;22694;51.040;3.684;2022-12-29T07:48:25;13.70;91.70
36710;DHT22;22694;51.040;3.684;2022-12-29T07:50:52;13.70;91.60
36710;DHT22;22694;51.040;3.684;2022-12-29T07:53:18;13.70;91.60
36710;DHT22;22694;51.040;3.684;2022-12-29T07:55:44;13.60;91.60
36710;DHT22;22694;51.040;3.684;2022-12-29T07:58:09;13.70;91.60
36710;DHT22;22694;51.040;3.684;2022-12-29T08:00:35;13.70;91.70
36710;DHT22;22694;51.040;3.684;2022-12-29T08:03:01;13.70;91.70
36710;DHT22;22694;51.040;3.684;2022-12-29T08:05:27;13.70;91.70
36710;DHT22;22694;51.040;3.684;2022-12-29T08:07:52;13.70;91.60
36710;DHT22;22694;51.040;3.684;2022-12-29T08:10:18;13.70;91.60
36710;DHT22;22694;51.040;3.684;2022-12-29T08:12:44;13.90;94.10
36710;DHT22;22694;51.040;3.684;2022-12-29T08:15:11;14.30;93.80
36710;DHT22;22694;51.040;3.684;2022-12-29T08:17:37;14.50;92.90
36710;DHT22;22694;51.040;3.684;2022-12-29T08:20:03;14.50;92.30
36710;DHT22;22694;51.040;3.684;2022-12-29T08:22:30;14.50;91.80
36710;DHT22;22694;51.040;3.684;2022-12-29T08:24:55;14.50;91.60
36710;DHT22;22694;51.040;3.684;2022-12-29T08:27:21;14.50;91.50
36710;DHT22;22694;51.040;3.684;2022-12-29T08:29:47;14.40;91.40
36710;DHT22;22694;51.040;3.684;2022-12-29T08:32:13;14.40;91.40
36710;DHT22;22694;51.040;3.684;2022-12-29T08:34:38;14.40;91.40
36710;DHT22;22694;51.040;3.684;2022-12-29T08:37:04;14.40;91.40
36710;DHT22;22694;51.040;3.684;2022-12-29T08:39:30;14.40;91.50
36710;DHT22;22694;51.040;3.684;2022-12-29T08:41:55;14.40;91.60
36710;DHT22;22694;51.040;3.684;2022-12-29T08:44:21;14.60;93.00
36710;DHT22;22694;51.040;3.684;2022-12-29T08:46:47;14.90;92.60
36710;DHT22;22694;51.040;3.684;2022-12-29T08:49:13;15.10;92.10
36710;DHT22;22694;51.040;3.684;2022-12-29T08:51:39;15.30;92.00
36710;DHT22;22694;51.040;3.684;2022-12-29T08:54:04;15.40;91.70
36710;DHT22;22694;51.040;3.684;2022-12-29T08:56:30;15.50;91.60
36710;DHT22;22694;51.040;3.684;2022-12-29T08:58:56;15.60;91.30
36710;DHT22;22694;51.040;3.684;2022-12-29T09:01:22;15.70;91.10
36710;DHT22;22694;51.040;3.684;2022-12-29T09:03:48;15.70;90.90
36710;DHT22;22694;51.040;3.684;2022-12-29T09:06:15;15.80;90.80
36710;DHT22;22694;51.040;3.684;2022-12-29T09:08:42;15.80;90.40
36710;DHT22;22694;51.040;3.684;2022-12-29T09:11:13;15.90;90.60
36710;DHT22;22694;51.040;3.684;2022-12-29T09:13:39;16.00;90.20
36710;DHT22;22694;51.040;3.684;2022-12-29T09:16:05;15.90;89.70
36710;DHT22;22694;51.040;3.684;2022-12-29T09:18:31;15.70;89.40
36710;DHT22;22694;51.040;3.684;2022-12-29T09:21:02;15.50;89.30
36710;DHT22;22694;51.040;3.684;2022-12-29T09:23:28;15.40;89.10
36710;DHT22;22694;51.040;3.684;2022-12-29T09:25:54;15.30;89.00
36710;DHT22;22694;51.040;3.684;2022-12-29T09:28:20;15.20;89.30
36710;DHT22;22694;51.040;3.684;2022-12-29T09:30:46;15.10;89.60
36710;DHT22;22694;51.040;3.684;2022-12-29T09:33:12;15.10;89.80
36710;DHT22;22694;51.040;3.684;2022-12-29T09:35:44;15.10;89.90
36710;DHT22;22694;51.040;3.684;2022-12-29T09:38:11;15.00;90.00
36710;DHT22;22694;51.040;3.684;2022-12-29T09:40:38;15.00;90.10
36710;DHT22;22694;51.040;3.684;2022-12-29T09:43:18;15.00;90.20
36710;DHT22;22694;51.040;3.684;2022-12-29T09:48:40;14.90;90.10
36710;DHT22;22694;51.040;3.684;2022-12-29T09:51:20;14.90;90.20
36710;DHT22;22694;51.040;3.684;2022-12-29T09:54:02;14.90;90.20
36710;DHT22;22694;51.040;3.684;2022-12-29T09:56:29;14.90;90.50
36710;DHT22;22694;51.040;3.684;2022-12-29T09:59:38;15.20;91.60
36710;DHT22;22694;51.040;3.684;2022-12-29T10:02:17;15.60;91.00
36710;DHT22;22694;51.040;3.684;2022-12-29T10:04:46;15.70;90.40
36710;DHT22;22694;51.040;3.684;2022-12-29T10:20:58;15.10;89.60
36710;DHT22;22694;51.040;3.684;2022-12-29T10:23:31;15.10;88.70
36710;DHT22;22694;51.040;3.684;2022-12-29T10:25:58;14.90;88.30
36710;DHT22;22694;51.040;3.684;2022-12-29T10:31:00;14.80;88.40
36710;DHT22;22694;51.040;3.684;2022-12-29T10:33:35;14.70;88.60
36710;DHT22;22694;51.040;3.684;2022-12-29T10:36:33;14.60;88.80
36710;DHT22;22694;51.040;3.684;2022-12-29T10:39:16;14.60;89.00
36710;DHT22;22694;51.040;3.684;2022-12-29T10:41:46;14.50;89.10
36710;DHT22;22694;51.040;3.684;2022-12-29T10:44:16;14.50;89.20
36710;DHT22;22694;51.040;3.684;2022-12-29T10:46:44;14.40;89.20
36710;DHT22;22694;51.040;3.684;2022-12-29T10:49:16;14.40;89.40
36710;DHT22;22694;51.040;3.684;2022-12-29T10:51:44;14.40;90.00
36710;DHT22;22694;51.040;3.684;2022-12-29T10:56:45;14.70;91.50
36710;DHT22;22694;51.040;3.684;2022-12-29T10:59:21;14.80;91.20
36710;DHT22;22694;51.040;3.684;2022-12-29T11:07:40;15.00;90.90
36710;DHT22;22694;51.040;3.684;2022-12-29T11:10:29;15.00;90.80
36710;DHT22;22694;51.040;3.684;2022-12-29T11:13:01;15.00;90.80
36710;DHT22;22694;51.040;3.684;2022-12-29T11:15:27;15.00;90.70
36710;DHT22;22694;51.040;3.684;2022-12-29T11:18:03;15.00;90.70
36710;DHT22;22694;51.040;3.684;2022-12-29T11:20:36;15.00;90.60
36710;DHT22;22694;51.040;3.684;2022-12-29T11:23:26;15.00;90.60
36710;DHT22;22694;51.040;3.684;2022-12-29T11:28:34;15.10;90.60
36710;DHT22;22694;51.040;3.684;2022-12-29T11:31:01;15.00;90.50
36710;DHT22;22694;51.040;3.684;2022-12-29T11:33:28;15.00;90.50
36710;DHT22;22694;51.040;3.684;2022-12-29T11:36:16;15.00;90.50
36710;DHT22;22694;51.040;3.684;2022-12-29T11:38:53;15.00;90.50
36710;DHT22;22694;51.040;3.684;2022-12-29T11:41:30;15.00;90.50
36710;DHT22;22694;51.040;3.684;2022-12-29T11:43:59;15.00;90.40
36710;DHT22;22694;51.040;3.684;2022-12-29T11:46:32;15.00;90.40
36710;DHT22;22694;51.040;3.684;2022-12-29T11:48:59;15.00;90.60
36710;DHT22;22694;51.040;3.684;2022-12-29T11:51:46;15.20;91.50
36710;DHT22;22694;51.040;3.684;2022-12-29T11:54:25;15.40;91.00
36710;DHT22;22694;51.040;3.684;2022-12-29T11:56:53;15.40;90.60
36710;DHT22;22694;51.040;3.684;2022-12-29T12:01:58;15.40;90.40
36710;DHT22;22694;51.040;3.684;2022-12-29T12:04:35;15.40;90.60
36710;DHT22;22694;51.040;3.684;2022-12-29T12:09:36;15.50;90.90
36710;DHT22;22694;51.040;3.684;2022-12-29T12:12:03;15.60;90.90
36710;DHT22;22694;51.040;3.684;2022-12-29T12:14:35;15.60;91.10
36710;DHT22;22694;51.040;3.684;2022-12-29T12:17:09;15.50;90.80
36710;DHT22;22694;51.040;3.684;2022-12-29T12:19:53;15.50;90.90
36710;DHT22;22694;51.040;3.684;2022-12-29T12:22:40;15.50;91.00
36710;DHT22;22694;51.040;3.684;2022-12-29T12:30:31;15.60;91.70
36710;DHT22;22694;51.040;3.684;2022-12-29T12:33:05;15.70;92.20
36710;DHT22;22694;51.040;3.684;2022-12-29T12:38:48;15.70;92.30
36710;DHT22;22694;51.040;3.684;2022-12-29T12:44:56;15.60;92.20
36710;DHT22;22694;51.040;3.684;2022-12-29T12:50:04;15.60;92.30
36710;DHT22;22694;51.040;3.684;2022-12-29T12:53:11;15.70;92.50
36710;DHT22;22694;51.040;3.684;2022-12-29T12:58:07;15.80;95.30
36710;DHT22;22694;51.040;3.684;2022-12-29T13:06:58;16.30;93.60
36710;DHT22;22694;51.040;3.684;2022-12-29T13:10:05;16.30;92.90
36710;DHT22;22694;51.040;3.684;2022-12-29T13:21:08;15.70;91.10
36710;DHT22;22694;51.040;3.684;2022-12-29T13:26:26;15.50;91.10
36710;DHT22;22694;51.040;3.684;2022-12-29T13:37:33;15.30;90.70
36710;DHT22;22694;51.040;3.684;2022-12-29T13:40:04;15.30;90.60
36710;DHT22;22694;51.040;3.684;2022-12-29T13:42:36;15.30;90.70
36710;DHT22;22694;51.040;3.684;2022-12-29T13:47:44;15.20;90.60
36710;DHT22;22694;51.040;3.684;2022-12-29T13:50:15;15.20;90.60
36710;DHT22;22694;51.040;3.684;2022-12-29T13:52:55;15.20;90.60
36710;DHT22;22694;51.040;3.684;2022-12-29T14:01:07;15.10;90.60
36710;DHT22;22694;51.040;3.684;2022-12-29T14:03:42;15.10;90.60
36710;DHT22;22694;51.040;3.684;2022-12-29T14:06:16;15.10;90.40
36710;DHT22;22694;51.040;3.684;2022-12-29T14:08:44;15.10;90.40
36710;DHT22;22694;51.040;3.684;2022-12-29T14:11:11;15.10;90.40
36710;DHT22;22694;51.040;3.684;2022-12-29T14:13:41;15.10;90.50
36710;DHT22;22694;51.040;3.684;2022-12-29T14:16:21;15.10;90.40
36710;DHT22;22694;51.040;3.684;2022-12-29T14:18:50;15.00;90.20
36710;DHT22;22694;51.040;3.684;2022-12-29T14:23:46;15.00;90.30
36710;DHT22;22694;51.040;3.684;2022-12-29T14:26:33;15.00;90.20
36710;DHT22;22694;51.040;3.684;2022-12-29T14:34:53;15.10;90.60
36710;DHT22;22694;51.040;3.684;2022-12-29T14:40:23;15.10;90.70
36710;DHT22;22694;51.040;3.684;2022-12-29T14:42:54;15.10;90.70
36710;DHT22;22694;51.040;3.684;2022-12-29T14:47:48;15.20;90.70
36710;DHT22;22694;51.040;3.684;2022-12-29T14:50:23;15.20;90.60
36710;DHT22;22694;51.040;3.684;2022-12-29T14:52:50;15.10;90.60
36710;DHT22;22694;51.040;3.684;2022-12-29T14:58:00;15.20;90.80
36710;DHT22;22694;51.040;3.684;2022-12-29T15:00:32;15.20;90.70
36710;DHT22;22694;51.040;3.684;2022-12-29T15:03:05;15.20;90.50
36710;DHT22;22694;51.040;3.684;2022-12-29T15:05:37;15.20;90.40
36710;DHT22;22694;51.040;3.684;2022-12-29T15:08:07;15.20;90.20
36710;DHT22;22694;51.040;3.684;2022-12-29T15:10:43;15.20;90.20
36710;DHT22;22694;51.040;3.684;2022-12-29T15:13:22;15.10;90.10
36710;DHT22;22694;51.040;3.684;2022-12-29T15:15:48;15.10;90.20
36710;DHT22;22694;51.040;3.684;2022-12-29T15:18:20;15.10;90.20
36710;DHT22;22694;51.040;3.684;2022-12-29T15:20:51;15.10;90.20
36710;DHT22;22694;51.040;3.684;2022-12-29T15:23:18;15.10;90.20
36710;DHT22;22694;51.040;3.684;2022-12-29T15:26:03;15.10;90.20
36710;DHT22;22694;51.040;3.684;2022-12-29T15:28:38;15.10;90.20
36710;DHT22;22694;51.040;3.684;2022-12-29T15:31:10;15.10;90.20
36710;DHT22;22694;51.040;3.684;2022-12-29T15:33:40;15.10;90.20
36710;DHT22;22694;51.040;3.684;2022-12-29T15:36:12;15.10;90.10
36710;DHT22;22694;51.040;3.684;2022-12-29T15:38:38;15.10;90.10
36710;DHT22;22694;51.040;3.684;2022-12-29T15:46:19;15.30;90.90
36710;DHT22;22694;51.040;3.684;2022-12-29T15:48:45;15.50;90.60
36710;DHT22;22694;51.040;3.684;2022-12-29T15:51:33;15.50;90.10
36710;DHT22;22694;51.040;3.684;2022-12-29T15:54:00;15.40;88.20
36710;DHT22;22694;51.040;3.684;2022-12-29T15:56:29;15.20;86.30
36710;DHT22;22694;51.040;3.684;2022-12-29T15:58:56;15.00;85.60
36710;DHT22;22694;51.040;3.684;2022-12-29T16:01:33;14.90;85.90
36710;DHT22;22694;51.040;3.684;2022-12-29T16:04:01;14.80;86.40
36710;DHT22;22694;51.040;3.684;2022-12-29T16:06:39;14.60;86.80
36710;DHT22;22694;51.040;3.684;2022-12-29T16:09:17;14.60;86.80
36710;DHT22;22694;51.040;3.684;2022-12-29T16:11:53;14.60;90.30
36710;DHT22;22694;51.040;3.684;2022-12-29T16:14:24;14.90;92.30
36710;DHT22;22694;51.040;3.684;2022-12-29T16:16:57;15.20;91.50
36710;DHT22;22694;51.040;3.684;2022-12-29T16:19:31;15.10;90.30
36710;DHT22;22694;51.040;3.684;2022-12-29T16:21:58;15.00;87.90
36710;DHT22;22694;51.040;3.684;2022-12-29T16:24:30;14.80;86.70
36710;DHT22;22694;51.040;3.684;2022-12-29T16:27:18;14.70;87.20
36710;DHT22;22694;51.040;3.684;2022-12-29T16:29:45;14.60;87.80
36710;DHT22;22694;51.040;3.684;2022-12-29T16:32:30;14.50;88.00
36710;DHT22;22694;51.040;3.684;2022-12-29T16:35:22;14.40;88.00
36710;DHT22;22694;51.040;3.684;2022-12-29T16:38:16;14.30;88.10
36710;DHT22;22694;51.040;3.684;2022-12-29T16:40:58;14.20;88.30
36710;DHT22;22694;51.040;3.684;2022-12-29T16:43:33;14.20;88.40
36710;DHT22;22694;51.040;3.684;2022-12-29T16:48:26;14.10;88.60
36710;DHT22;22694;51.040;3.684;2022-12-29T16:51:23;14.00;88.70
36710;DHT22;22694;51.040;3.684;2022-12-29T16:53:52;14.00;88.70
36710;DHT22;22694;51.040;3.684;2022-12-29T16:56:21;13.90;88.70
36710;DHT22;22694;51.040;3.684;2022-12-29T16:59:04;13.90;88.80
36710;DHT22;22694;51.040;3.684;2022-12-29T17:01:31;13.90;88.80
36710;DHT22;22694;51.040;3.684;2022-12-29T17:03:58;13.90;89.50
36710;DHT22;22694;51.040;3.684;2022-12-29T17:06:26;13.80;88.90
36710;DHT22;22694;51.040;3.684;2022-12-29T17:08:51;13.80;89.00
36710;DHT22;22694;51.040;3.684;2022-12-29T17:11:28;13.70;89.00
36710;DHT22;22694;51.040;3.684;2022-12-29T17:16:57;13.70;89.00
36710;DHT22;22694;51.040;3.684;2022-12-29T17:19:33;13.60;88.90
36710;DHT22;22694;51.040;3.684;2022-12-29T17:22:00;13.60;88.90
36710;DHT22;22694;51.040;3.684;2022-12-29T17:24:26;13.60;89.60
36710;DHT22;22694;51.040;3.684;2022-12-29T17:26:55;13.50;89.00
36710;DHT22;22694;51.040;3.684;2022-12-29T17:29:34;13.50;88.90
36710;DHT22;22694;51.040;3.684;2022-12-29T17:32:02;13.50;89.00
36710;DHT22;22694;51.040;3.684;2022-12-29T17:34:28;13.50;89.00
36710;DHT22;22694;51.040;3.684;2022-12-29T17:36:54;13.40;89.00
36710;DHT22;22694;51.040;3.684;2022-12-29T17:39:20;13.40;89.00
36710;DHT22;22694;51.040;3.684;2022-12-29T17:41:46;13.40;89.00
36710;DHT22;22694;51.040;3.684;2022-12-29T17:44:19;13.40;89.00
36710;DHT22;22694;51.040;3.684;2022-12-29T17:46:46;13.40;89.00
36710;DHT22;22694;51.040;3.684;2022-12-29T17:49:16;13.40;89.10
36710;DHT22;22694;51.040;3.684;2022-12-29T17:51:44;13.30;89.00
36710;DHT22;22694;51.040;3.684;2022-12-29T17:54:21;13.30;89.10
36710;DHT22;22694;51.040;3.684;2022-12-29T17:56:48;13.30;89.20
36710;DHT22;22694;51.040;3.684;2022-12-29T17:59:14;13.30;89.30
36710;DHT22;22694;51.040;3.684;2022-12-29T18:01:41;13.30;89.20
36710;DHT22;22694;51.040;3.684;2022-12-29T18:04:12;13.30;89.20
36710;DHT22;22694;51.040;3.684;2022-12-29T18:06:38;13.20;89.20
36710;DHT22;22694;51.040;3.684;2022-12-29T18:09:04;13.20;89.20
36710;DHT22;22694;51.040;3.684;2022-12-29T18:11:39;13.20;89.20
36710;DHT22;22694;51.040;3.684;2022-12-29T18:14:16;13.20;89.20
36710;DHT22;22694;51.040;3.684;2022-12-29T18:16:42;13.20;89.20